createdAt,value
2017-10-30T00:00:05.347Z,3.40
2017-10-30T00:02:33.306Z,4.13
2017-10-30T00:05:02.293Z,3.70
2017-10-30T00:07:30.183Z,3.87
2017-10-30T00:09:58.000Z,3.80
2017-10-30T00:12:26.280Z,3.30
2017-10-30T00:14:54.184Z,3.30
2017-10-30T00:17:22.260Z,5.10
2017-10-30T00:19:50.024Z,3.17
2017-10-30T00:22:18.691Z,3.60
2017-10-30T00:24:46.470Z,4.03
2017-10-30T00:27:14.442Z,3.60
2017-10-30T00:29:42.307Z,4.00
2017-10-30T00:32:10.343Z,3.60
2017-10-30T00:34:38.435Z,4.00
2017-10-30T00:37:06.299Z,4.43
2017-10-30T00:39:34.094Z,5.43
2017-10-30T00:42:02.031Z,4.03
2017-10-30T00:44:29.898Z,3.43
2017-10-30T00:46:57.966Z,4.40
2017-10-30T00:49:26.158Z,5.70
2017-10-30T00:51:54.028Z,4.00
2017-10-30T00:54:22.285Z,3.33
2017-10-30T00:56:50.288Z,3.10
2017-10-30T00:59:18.223Z,3.63
2017-10-30T01:01:46.191Z,3.40
2017-10-30T01:04:14.090Z,4.00
2017-10-30T01:06:41.952Z,3.57
2017-10-30T01:09:09.831Z,3.77
2017-10-30T01:11:37.657Z,4.07
2017-10-30T01:14:05.479Z,4.30
2017-10-30T01:16:35.059Z,3.57
2017-10-30T01:19:02.870Z,3.63
2017-10-30T01:21:30.783Z,3.77
2017-10-30T01:23:58.673Z,2.90
2017-10-30T01:26:27.415Z,3.47
2017-10-30T01:28:55.793Z,3.13
2017-10-30T01:31:24.495Z,4.00
2017-10-30T01:33:52.364Z,3.43
2017-10-30T01:36:20.413Z,4.30
2017-10-30T01:38:48.282Z,3.60
2017-10-30T01:41:16.186Z,4.83
2017-10-30T01:43:44.861Z,4.70
2017-10-30T01:46:12.828Z,3.70
2017-10-30T01:48:41.362Z,3.70
2017-10-30T01:51:09.253Z,4.30
2017-10-30T01:53:37.035Z,5.23
2017-10-30T01:56:05.218Z,3.27
2017-10-30T01:58:33.070Z,3.30
2017-10-30T02:01:00.917Z,3.63
2017-10-30T02:03:28.803Z,4.20
2017-10-30T02:05:56.672Z,4.10
2017-10-30T02:08:24.743Z,4.70
2017-10-30T02:10:52.759Z,4.83
2017-10-30T02:13:20.546Z,3.80
2017-10-30T02:15:48.449Z,4.10
2017-10-30T02:18:16.218Z,3.60
2017-10-30T02:20:44.258Z,4.27
2017-10-30T02:23:12.453Z,4.30
2017-10-30T02:25:40.328Z,3.60
2017-10-30T02:28:08.179Z,2.90
2017-10-30T02:30:36.273Z,4.00
2017-10-30T02:33:04.237Z,2.83
2017-10-30T02:35:32.586Z,3.40
2017-10-30T02:38:00.527Z,2.47
2017-10-30T02:40:29.193Z,2.90
2017-10-30T02:42:57.844Z,2.73
2017-10-30T02:45:26.066Z,3.30
2017-10-30T02:47:54.000Z,3.10
2017-10-30T02:50:21.908Z,2.87
2017-10-30T02:52:49.909Z,3.20
2017-10-30T02:55:17.790Z,2.83
2017-10-30T02:57:45.842Z,3.47
2017-10-30T03:00:14.123Z,3.47
2017-10-30T03:02:42.193Z,3.50
2017-10-30T03:05:10.262Z,4.47
2017-10-30T03:07:38.451Z,2.90
2017-10-30T03:10:06.507Z,3.40
2017-10-30T03:12:34.578Z,3.90
2017-10-30T03:15:02.771Z,3.07
2017-10-30T03:17:30.922Z,4.90
2017-10-30T03:19:59.324Z,3.50
2017-10-30T03:22:27.374Z,4.03
2017-10-30T03:24:55.360Z,4.37
2017-10-30T03:27:23.438Z,4.80
2017-10-30T03:29:51.312Z,4.67
2017-10-30T03:32:19.274Z,4.53
2017-10-30T03:34:47.145Z,3.97
2017-10-30T03:37:15.088Z,4.43
2017-10-30T03:39:42.984Z,4.10
2017-10-30T03:42:10.864Z,5.07
2017-10-30T03:44:40.320Z,4.00
2017-10-30T03:47:08.495Z,5.20
2017-10-30T03:49:36.322Z,7.70
2017-10-30T03:52:05.063Z,5.60
2017-10-30T03:54:33.747Z,4.43
2017-10-30T03:57:02.744Z,4.87
2017-10-30T03:59:30.607Z,3.83
2017-10-30T04:01:58.766Z,3.63
2017-10-30T04:04:26.840Z,4.53
2017-10-30T04:06:55.240Z,4.37
2017-10-30T04:09:23.176Z,3.40
2017-10-30T04:11:51.052Z,3.60
2017-10-30T04:14:19.247Z,4.40
2017-10-30T04:16:47.107Z,5.10
2017-10-30T04:19:15.082Z,4.03
2017-10-30T04:21:43.763Z,4.00
2017-10-30T04:24:11.611Z,6.53
2017-10-30T04:26:39.387Z,5.30
2017-10-30T04:29:07.153Z,5.67
2017-10-30T04:31:35.025Z,5.57
2017-10-30T04:34:04.039Z,5.00
2017-10-30T04:36:32.801Z,5.60
2017-10-30T04:39:02.391Z,4.90
2017-10-30T04:41:30.463Z,4.50
2017-10-30T04:43:58.315Z,5.77
2017-10-30T04:46:26.210Z,5.60
2017-10-30T04:48:54.275Z,5.60
2017-10-30T04:51:22.253Z,5.20
2017-10-30T04:53:50.190Z,5.93
2017-10-30T04:56:17.964Z,5.00
2017-10-30T04:58:46.364Z,6.33
2017-10-30T05:01:14.213Z,9.00
2017-10-30T05:03:42.098Z,6.83
2017-10-30T05:06:10.151Z,6.70
2017-10-30T05:08:37.931Z,6.60
2017-10-30T05:11:06.906Z,6.77
2017-10-30T05:13:34.713Z,6.93
2017-10-30T05:16:02.492Z,7.90
2017-10-30T05:18:31.139Z,7.43
2017-10-30T05:20:59.307Z,7.23
2017-10-30T05:23:27.260Z,7.83
2017-10-30T05:25:55.249Z,7.60
2017-10-30T05:28:24.736Z,6.87
2017-10-30T05:30:52.824Z,6.93
2017-10-30T05:33:20.707Z,9.57
2017-10-30T05:35:49.289Z,8.10
2017-10-30T05:38:17.147Z,8.00
2017-10-30T05:40:45.909Z,8.13
2017-10-30T05:43:14.010Z,7.13
2017-10-30T05:45:42.008Z,7.07
2017-10-30T05:48:10.763Z,6.87
2017-10-30T05:50:38.546Z,6.03
2017-10-30T05:53:07.208Z,7.90
2017-10-30T05:55:35.171Z,7.97
2017-10-30T05:58:03.023Z,6.73
2017-10-30T06:00:30.992Z,7.77
2017-10-30T06:02:59.193Z,7.43
2017-10-30T06:05:27.012Z,6.73
2017-10-30T06:07:54.926Z,7.40
2017-10-30T06:10:22.784Z,7.13
2017-10-30T06:12:50.649Z,7.53
2017-10-30T06:15:18.399Z,6.50
2017-10-30T06:17:46.380Z,7.30
2017-10-30T06:20:14.246Z,7.47
2017-10-30T06:22:42.013Z,8.20
2017-10-30T06:25:09.975Z,9.40
2017-10-30T06:27:37.864Z,7.50
2017-10-30T06:30:05.717Z,7.90
2017-10-30T06:32:33.581Z,7.50
2017-10-30T06:35:01.659Z,8.97
2017-10-30T06:37:29.600Z,7.70
2017-10-30T06:39:57.534Z,8.87
2017-10-30T06:42:25.361Z,6.87
2017-10-30T06:44:53.299Z,6.63
2017-10-30T06:47:21.271Z,6.90
2017-10-30T06:49:49.464Z,7.17
2017-10-30T06:52:17.413Z,6.27
2017-10-30T06:54:45.408Z,7.30
2017-10-30T06:57:13.522Z,8.70
2017-10-30T06:59:41.305Z,10.43
2017-10-30T07:02:30.178Z,8.33
2017-10-30T07:04:58.089Z,30.87
2017-10-30T07:07:26.832Z,191.67
2017-10-30T07:09:54.736Z,159.10
2017-10-30T07:12:22.666Z,31.03
2017-10-30T07:14:50.740Z,9.93
2017-10-30T07:17:18.913Z,8.10
2017-10-30T07:19:47.701Z,5.33
2017-10-30T07:22:15.878Z,5.00
2017-10-30T07:24:44.969Z,5.50
2017-10-30T07:27:13.755Z,7.87
2017-10-30T07:29:41.708Z,9.10
2017-10-30T07:32:09.627Z,13.80
2017-10-30T07:34:38.374Z,6.10
2017-10-30T07:37:06.451Z,5.47
2017-10-30T07:39:34.571Z,6.97
2017-10-30T07:42:03.312Z,6.77
2017-10-30T07:44:31.281Z,5.10
2017-10-30T07:46:59.181Z,5.53
2017-10-30T07:49:27.942Z,8.60
2017-10-30T07:51:56.522Z,6.67
2017-10-30T07:54:24.894Z,6.40
2017-10-30T07:56:52.965Z,6.60
2017-10-30T07:59:21.139Z,6.23
2017-10-30T08:01:49.115Z,5.80
2017-10-30T08:04:17.317Z,6.53
2017-10-30T08:06:46.102Z,6.57
2017-10-30T08:09:14.701Z,5.63
2017-10-30T08:11:43.476Z,5.73
2017-10-30T08:14:12.433Z,6.83
2017-10-30T08:16:40.401Z,6.33
2017-10-30T08:19:08.471Z,5.13
2017-10-30T08:21:36.547Z,5.47
2017-10-30T08:24:04.513Z,4.80
2017-10-30T08:26:32.585Z,6.00
2017-10-30T08:29:00.755Z,6.07
2017-10-30T08:31:29.034Z,5.07
2017-10-30T08:33:57.119Z,5.70
2017-10-30T08:36:25.281Z,5.93
2017-10-30T08:38:53.354Z,5.47
2017-10-30T08:41:21.522Z,5.97
2017-10-30T08:43:49.805Z,5.97
2017-10-30T08:46:17.871Z,5.23
2017-10-30T08:48:45.942Z,5.57
2017-10-30T08:51:14.014Z,6.40
2017-10-30T08:53:42.084Z,5.30
2017-10-30T08:56:10.171Z,4.80
2017-10-30T08:58:38.330Z,4.90
2017-10-30T09:01:06.402Z,4.90
2017-10-30T09:03:34.472Z,3.77
2017-10-30T09:06:02.553Z,4.47
2017-10-30T09:08:30.718Z,4.30
2017-10-30T09:10:58.789Z,4.47
2017-10-30T09:13:26.862Z,3.63
2017-10-30T09:15:54.933Z,4.40
2017-10-30T09:18:23.002Z,4.27
2017-10-30T09:20:51.091Z,4.50
2017-10-30T09:23:20.458Z,3.90
2017-10-30T09:25:48.565Z,4.10
2017-10-30T09:28:18.190Z,4.60
2017-10-30T09:30:47.047Z,4.30
2017-10-30T09:33:15.538Z,4.33
2017-10-30T09:35:43.804Z,4.30
2017-10-30T09:38:12.112Z,3.93
2017-10-30T09:40:40.291Z,3.80
2017-10-30T09:43:08.967Z,5.10
2017-10-30T09:45:36.839Z,4.40
2017-10-30T09:48:05.856Z,4.10
2017-10-30T09:50:33.868Z,5.00
2017-10-30T09:53:01.845Z,4.40
2017-10-30T09:55:29.844Z,3.90
2017-10-30T09:57:58.800Z,3.47
2017-10-30T10:00:26.871Z,3.50
2017-10-30T10:02:55.146Z,6.07
2017-10-30T10:05:23.421Z,4.70
2017-10-30T10:07:51.502Z,3.20
2017-10-30T10:10:19.682Z,3.37
2017-10-30T10:12:47.738Z,3.37
2017-10-30T10:15:16.433Z,3.27
2017-10-30T10:17:44.393Z,3.07
2017-10-30T10:20:12.466Z,2.80
2017-10-30T10:22:40.539Z,3.90
2017-10-30T10:25:08.708Z,2.90
2017-10-30T10:27:36.782Z,2.77
2017-10-30T10:30:04.851Z,3.27
2017-10-30T10:32:32.923Z,3.43
2017-10-30T10:35:00.994Z,3.70
2017-10-30T10:37:29.003Z,3.50
2017-10-30T10:39:57.958Z,4.07
2017-10-30T10:42:25.948Z,3.67
2017-10-30T10:44:53.995Z,3.80
2017-10-30T10:47:21.965Z,3.53
2017-10-30T10:49:50.140Z,2.73
2017-10-30T10:52:18.312Z,3.80
2017-10-30T10:54:46.215Z,3.37
2017-10-30T10:57:15.072Z,3.80
2017-10-30T10:59:43.040Z,3.23
2017-10-30T11:02:11.110Z,2.77
2017-10-30T11:04:39.080Z,2.93
2017-10-30T11:07:07.091Z,3.27
2017-10-30T11:09:36.041Z,3.33
2017-10-30T11:12:03.912Z,2.70
2017-10-30T11:14:31.983Z,3.20
2017-10-30T11:17:00.053Z,2.63
2017-10-30T11:19:28.368Z,2.73
2017-10-30T11:21:57.215Z,3.10
2017-10-30T11:24:25.184Z,2.50
2017-10-30T11:26:58.582Z,2.23
2017-10-30T11:29:26.462Z,3.10
2017-10-30T11:31:54.620Z,3.00
2017-10-30T11:34:22.507Z,3.73
2017-10-30T11:36:50.372Z,3.30
2017-10-30T11:39:18.342Z,2.97
2017-10-30T11:41:46.219Z,2.93
2017-10-30T11:44:14.076Z,3.70
2017-10-30T11:46:41.952Z,2.80
2017-10-30T11:49:09.941Z,3.40
2017-10-30T11:51:38.480Z,2.30
2017-10-30T11:54:06.369Z,2.37
2017-10-30T11:56:34.231Z,2.30
2017-10-30T11:59:02.088Z,2.10
2017-10-30T12:01:29.963Z,2.43
2017-10-30T12:03:57.911Z,2.93
2017-10-30T12:06:25.887Z,2.20
2017-10-30T12:08:53.849Z,2.27
2017-10-30T12:11:22.740Z,2.40
2017-10-30T12:13:50.809Z,3.00
2017-10-30T12:16:18.882Z,3.13
2017-10-30T12:18:46.966Z,2.80
2017-10-30T12:21:15.741Z,3.13
2017-10-30T12:23:43.711Z,2.63
2017-10-30T12:26:11.746Z,3.17
2017-10-30T12:28:39.854Z,2.67
2017-10-30T12:31:07.922Z,3.30
2017-10-30T12:33:35.933Z,3.50
2017-10-30T12:36:04.575Z,3.27
2017-10-30T12:38:32.458Z,3.30
2017-10-30T12:41:00.344Z,3.00
2017-10-30T12:43:29.022Z,3.20
2017-10-30T12:45:57.211Z,3.60
2017-10-30T12:48:25.874Z,2.33
2017-10-30T12:50:53.829Z,3.23
2017-10-30T12:53:21.903Z,3.53
2017-10-30T12:55:49.889Z,3.43
2017-10-30T12:58:18.201Z,2.50
2017-10-30T13:00:46.849Z,2.90
2017-10-30T13:03:14.822Z,2.60
2017-10-30T13:05:42.680Z,3.13
2017-10-30T13:08:10.547Z,3.43
2017-10-30T13:10:39.322Z,3.27
2017-10-30T13:13:07.207Z,2.93
2017-10-30T13:15:35.152Z,3.40
2017-10-30T13:18:03.249Z,3.90
2017-10-30T13:20:31.227Z,3.60
2017-10-30T13:22:59.085Z,3.87
2017-10-30T13:25:27.038Z,3.37
2017-10-30T13:27:54.920Z,2.20
2017-10-30T13:30:23.629Z,3.60
2017-10-30T13:32:52.383Z,3.57
2017-10-30T13:35:20.267Z,3.30
2017-10-30T13:37:48.238Z,2.60
2017-10-30T13:40:16.206Z,2.60
2017-10-30T13:42:44.363Z,2.80
2017-10-30T13:45:12.255Z,2.70
2017-10-30T13:47:40.849Z,3.30
2017-10-30T13:50:09.510Z,2.50
2017-10-30T13:52:37.457Z,3.37
2017-10-30T13:55:05.382Z,3.20
2017-10-30T13:57:33.311Z,2.97
2017-10-30T14:00:01.185Z,3.17
2017-10-30T14:02:28.969Z,3.80
2017-10-30T14:04:57.838Z,3.33
2017-10-30T14:07:25.895Z,3.37
2017-10-30T14:09:53.745Z,3.20
2017-10-30T14:12:21.837Z,2.83
2017-10-30T14:14:49.854Z,3.30
2017-10-30T14:17:17.684Z,3.00
2017-10-30T14:19:45.632Z,3.90
2017-10-30T14:22:13.625Z,2.90
2017-10-30T14:24:42.298Z,3.13
2017-10-30T14:27:10.244Z,2.10
2017-10-30T14:29:38.194Z,2.17
2017-10-30T14:32:06.093Z,3.03
2017-10-30T14:34:34.075Z,2.07
2017-10-30T14:37:02.019Z,2.50
2017-10-30T14:39:29.929Z,2.43
2017-10-30T14:41:58.584Z,1.90
2017-10-30T14:44:26.657Z,2.47
2017-10-30T14:46:54.689Z,2.70
2017-10-30T14:49:22.976Z,2.47
2017-10-30T14:51:50.972Z,2.20
2017-10-30T14:54:18.928Z,2.50
2017-10-30T14:56:48.565Z,2.83
2017-10-30T14:59:16.729Z,2.53
2017-10-30T15:01:44.650Z,2.70
2017-10-30T15:04:12.863Z,2.43
2017-10-30T15:06:40.847Z,2.40
2017-10-30T15:09:08.785Z,4.03
2017-10-30T15:11:36.558Z,3.23
2017-10-30T15:14:04.566Z,2.80
2017-10-30T15:16:33.215Z,2.70
2017-10-30T15:19:01.376Z,3.00
2017-10-30T15:21:29.480Z,3.70
2017-10-30T15:23:57.290Z,2.63
2017-10-30T15:26:25.102Z,2.70
2017-10-30T15:28:53.089Z,2.73
2017-10-30T15:31:20.892Z,3.70
2017-10-30T15:33:48.794Z,3.80
2017-10-30T15:36:16.783Z,3.87
2017-10-30T15:38:44.821Z,5.07
2017-10-30T15:41:12.994Z,4.63
2017-10-30T15:43:40.850Z,3.43
2017-10-30T15:46:08.756Z,2.53
2017-10-30T15:48:36.737Z,2.43
2017-10-30T15:51:04.537Z,3.20
2017-10-30T15:53:32.450Z,3.43
2017-10-30T15:56:00.397Z,3.43
2017-10-30T15:58:28.282Z,3.17
2017-10-30T16:00:56.337Z,3.13
2017-10-30T16:03:24.242Z,15.70
2017-10-30T16:05:53.092Z,3.20
2017-10-30T16:08:20.960Z,3.17
2017-10-30T16:10:48.838Z,2.43
2017-10-30T16:13:16.742Z,2.17
2017-10-30T16:15:45.493Z,2.57
2017-10-30T16:18:13.453Z,3.03
2017-10-30T16:20:41.259Z,3.27
2017-10-30T16:23:10.022Z,3.13
2017-10-30T16:25:37.995Z,2.83
2017-10-30T16:28:06.882Z,3.37
2017-10-30T16:30:35.095Z,3.10
2017-10-30T16:33:02.954Z,3.40
2017-10-30T16:35:31.612Z,2.87
2017-10-30T16:37:59.554Z,3.60
2017-10-30T16:40:27.753Z,3.20
2017-10-30T16:42:55.712Z,2.67
2017-10-30T16:45:37.107Z,2.63
2017-10-30T16:48:05.767Z,3.40
2017-10-30T16:50:33.940Z,3.20
2017-10-30T16:53:02.040Z,2.93
2017-10-30T16:55:30.111Z,3.37
2017-10-30T16:57:58.396Z,3.00
2017-10-30T17:00:26.351Z,2.60
2017-10-30T17:02:54.293Z,3.47
2017-10-30T17:05:22.150Z,3.47
2017-10-30T17:07:50.131Z,2.93
2017-10-30T17:10:18.020Z,2.97
2017-10-30T17:12:47.424Z,3.10
2017-10-30T17:15:15.398Z,5.27
2017-10-30T17:17:43.645Z,14.80
2017-10-30T17:20:11.529Z,14.43
2017-10-30T17:22:39.294Z,10.27
2017-10-30T17:25:07.245Z,8.70
2017-10-30T17:27:35.047Z,8.43
2017-10-30T17:30:02.895Z,4.17
2017-10-30T17:32:30.657Z,3.93
2017-10-30T17:35:00.434Z,3.70
2017-10-30T17:37:28.226Z,3.47
2017-10-30T17:39:56.085Z,3.17
2017-10-30T17:42:24.148Z,3.07
2017-10-30T17:44:52.019Z,3.17
2017-10-30T17:47:19.916Z,3.90
2017-10-30T17:49:47.820Z,4.07
2017-10-30T17:52:15.825Z,4.00
2017-10-30T17:54:43.802Z,3.40
2017-10-30T17:57:11.874Z,3.70
2017-10-30T17:59:41.100Z,4.23
2017-10-30T18:02:09.745Z,3.83
2017-10-30T18:04:37.630Z,7.37
2017-10-30T18:07:05.499Z,18.00
2017-10-30T18:09:33.370Z,10.40
2017-10-30T18:12:01.550Z,7.30
2017-10-30T18:14:30.254Z,9.37
2017-10-30T18:16:59.095Z,8.43
2017-10-30T18:19:27.131Z,8.77
2017-10-30T18:22:00.830Z,8.80
2017-10-30T18:24:28.847Z,13.87
2017-10-30T18:26:56.909Z,6.93
2017-10-30T18:29:24.882Z,7.57
2017-10-30T18:31:52.851Z,6.80
2017-10-30T18:34:20.876Z,8.00
2017-10-30T18:36:49.518Z,5.80
2017-10-30T18:39:18.227Z,5.17
2017-10-30T18:41:47.179Z,4.87
2017-10-30T18:44:15.464Z,5.77
2017-10-30T18:46:43.357Z,4.70
2017-10-30T18:49:11.162Z,6.10
2017-10-30T18:51:38.970Z,5.40
2017-10-30T18:54:06.919Z,5.47
2017-10-30T18:56:34.887Z,5.03
2017-10-30T18:59:02.774Z,6.07
2017-10-30T19:01:30.752Z,6.07
2017-10-30T19:03:58.935Z,5.90
2017-10-30T19:06:27.702Z,5.10
2017-10-30T19:08:55.656Z,4.63
2017-10-30T19:11:24.031Z,4.73
2017-10-30T19:13:51.925Z,6.27
2017-10-30T19:16:19.753Z,6.30
2017-10-30T19:18:47.590Z,5.80
2017-10-30T19:21:15.703Z,6.57
2017-10-30T19:23:43.931Z,6.23
2017-10-30T19:26:12.085Z,6.40
2017-10-30T19:28:40.829Z,6.90
2017-10-30T19:31:08.804Z,7.00
2017-10-30T19:33:36.672Z,6.80
2017-10-30T19:36:04.504Z,6.10
2017-10-30T19:38:32.550Z,6.10
2017-10-30T19:41:01.511Z,6.40
2017-10-30T19:43:29.471Z,6.40
2017-10-30T19:45:57.455Z,7.83
2017-10-30T19:48:25.935Z,9.33
2017-10-30T19:50:53.991Z,8.00
2017-10-30T19:53:22.239Z,7.60
2017-10-30T19:55:50.235Z,18.20
2017-10-30T19:58:18.129Z,10.77
2017-10-30T20:00:46.250Z,22.50
2017-10-30T20:03:14.252Z,27.00
2017-10-30T20:05:47.982Z,14.77
2017-10-30T20:08:21.703Z,16.70
2017-10-30T20:10:56.293Z,10.07
2017-10-30T20:13:24.686Z,10.43
2017-10-30T20:15:53.467Z,9.27
2017-10-30T20:18:21.423Z,10.57
2017-10-30T20:20:49.629Z,9.67
2017-10-30T20:23:18.284Z,10.73
2017-10-30T20:25:46.368Z,8.80
2017-10-30T20:28:14.242Z,10.30
2017-10-30T20:30:42.294Z,9.07
2017-10-30T20:33:10.285Z,9.30
2017-10-30T20:35:38.365Z,9.23
2017-10-30T20:38:07.016Z,9.93
2017-10-30T20:40:34.911Z,9.07
2017-10-30T20:43:03.755Z,11.10
2017-10-30T20:45:31.873Z,12.80
2017-10-30T20:48:00.718Z,9.10
2017-10-30T20:50:28.730Z,9.10
2017-10-30T20:52:57.474Z,8.30
2017-10-30T20:55:25.644Z,8.40
2017-10-30T20:57:53.756Z,8.50
2017-10-30T21:00:21.604Z,6.97
2017-10-30T21:02:49.457Z,6.90
2017-10-30T21:05:17.492Z,7.37
2017-10-30T21:07:45.267Z,6.63
2017-10-30T21:10:13.324Z,6.70
2017-10-30T21:12:42.148Z,8.77
2017-10-30T21:15:10.029Z,7.83
2017-10-30T21:17:37.903Z,9.83
2017-10-30T21:20:06.767Z,9.20
2017-10-30T21:22:34.646Z,7.47
2017-10-30T21:25:02.711Z,6.80
2017-10-30T21:27:30.774Z,6.73
2017-10-30T21:29:58.745Z,6.83
2017-10-30T21:32:26.611Z,6.40
2017-10-30T21:34:54.504Z,5.83
2017-10-30T21:37:22.558Z,5.10
2017-10-30T21:39:50.430Z,5.67
2017-10-30T21:42:18.592Z,5.13
2017-10-30T21:44:46.473Z,5.30
2017-10-30T21:47:14.387Z,6.10
2017-10-30T21:49:42.320Z,5.57
2017-10-30T21:52:10.262Z,5.53
2017-10-30T21:54:38.640Z,6.13
2017-10-30T21:57:07.426Z,7.00
2017-10-30T21:59:35.311Z,6.33
2017-10-30T22:02:06.490Z,5.80
2017-10-30T22:04:35.633Z,6.27
2017-10-30T22:07:03.703Z,5.90
2017-10-30T22:09:31.911Z,7.87
2017-10-30T22:12:00.709Z,7.90
2017-10-30T22:14:30.805Z,8.10
2017-10-30T22:16:58.852Z,7.63
2017-10-30T22:19:27.031Z,7.80
2017-10-30T22:21:55.203Z,7.23
2017-10-30T22:24:23.458Z,8.53
2017-10-30T22:26:51.451Z,8.80
2017-10-30T22:29:19.525Z,7.97
2017-10-30T22:31:47.364Z,6.20
2017-10-30T22:34:15.266Z,8.80
2017-10-30T22:36:43.135Z,8.40
2017-10-30T22:39:11.089Z,7.40
2017-10-30T22:41:38.885Z,6.17
2017-10-30T22:44:11.430Z,5.87
2017-10-30T22:46:39.268Z,5.73
2017-10-30T22:49:07.185Z,5.83
2017-10-30T22:51:36.060Z,5.27
2017-10-30T22:54:03.933Z,5.90
2017-10-30T22:56:31.911Z,5.00
2017-10-30T22:58:59.962Z,5.23
2017-10-30T23:01:29.159Z,5.50
2017-10-30T23:03:57.001Z,5.67
2017-10-30T23:06:25.000Z,4.37
2017-10-30T23:08:52.859Z,5.20
2017-10-30T23:11:20.593Z,5.53
2017-10-30T23:13:48.450Z,5.37
2017-10-30T23:16:16.266Z,4.80
2017-10-30T23:18:44.339Z,4.97
2017-10-30T23:21:12.291Z,5.57
2017-10-30T23:23:40.188Z,6.00
2017-10-30T23:26:07.956Z,5.40
2017-10-30T23:28:35.723Z,5.00
2017-10-30T23:31:03.551Z,6.40
2017-10-30T23:33:31.415Z,4.77
2017-10-30T23:35:59.201Z,4.60
2017-10-30T23:38:27.150Z,4.67
2017-10-30T23:40:55.449Z,4.97
2017-10-30T23:43:23.491Z,5.63
2017-10-30T23:45:51.462Z,4.87
2017-10-30T23:48:19.230Z,4.70
2017-10-30T23:50:47.114Z,3.57
2017-10-30T23:53:14.874Z,5.10
2017-10-30T23:55:42.776Z,4.57
2017-10-30T23:58:11.616Z,4.30
